createdAt,value
2017-10-23T00:01:06.668Z,0.00
2017-10-23T00:02:06.558Z,0.00
2017-10-23T00:03:59.553Z,0.00
2017-10-23T00:04:59.946Z,0.00
2017-10-23T00:06:52.571Z,0.00
2017-10-23T00:07:52.188Z,0.00
2017-10-23T00:09:45.480Z,0.00
2017-10-23T00:10:45.067Z,0.00
2017-10-23T00:13:38.101Z,0.00
2017-10-23T00:15:33.008Z,0.00
2017-10-23T00:16:32.864Z,0.00
2017-10-23T00:18:25.797Z,0.00
2017-10-23T00:19:25.770Z,0.00
2017-10-23T00:21:19.266Z,0.00
2017-10-23T00:22:18.842Z,0.00
2017-10-23T00:24:11.712Z,0.00
2017-10-23T00:25:11.671Z,0.00
2017-10-23T00:27:04.785Z,0.00
2017-10-23T00:28:04.288Z,0.00
2017-10-23T00:29:57.702Z,0.00
2017-10-23T00:30:58.068Z,0.00
2017-10-23T00:32:52.200Z,0.00
2017-10-23T00:33:52.139Z,0.00
2017-10-23T00:35:45.306Z,0.00
2017-10-23T00:36:44.726Z,0.00
2017-10-23T00:38:38.072Z,0.00
2017-10-23T00:39:37.616Z,0.00
2017-10-23T00:41:31.133Z,0.00
2017-10-23T00:42:30.646Z,0.00
2017-10-23T00:44:23.941Z,0.00
2017-10-23T00:45:23.897Z,0.00
2017-10-23T00:47:17.000Z,0.00
2017-10-23T00:48:16.819Z,0.00
2017-10-23T00:50:11.395Z,0.00
2017-10-23T00:51:11.292Z,0.00
2017-10-23T00:53:04.589Z,0.00
2017-10-23T00:54:04.291Z,0.00
2017-10-23T00:55:57.484Z,0.00
2017-10-23T00:56:57.101Z,0.00
2017-10-23T00:58:50.440Z,0.00
2017-10-23T00:59:50.378Z,0.00
2017-10-23T01:01:43.653Z,0.00
2017-10-23T01:02:43.271Z,0.00
2017-10-23T01:04:36.597Z,0.00
2017-10-23T01:05:36.226Z,0.00
2017-10-23T01:07:30.137Z,0.00
2017-10-23T01:08:29.689Z,0.00
2017-10-23T01:10:24.526Z,0.00
2017-10-23T01:11:24.148Z,0.00
2017-10-23T01:13:17.553Z,0.00
2017-10-23T01:14:17.115Z,0.00
2017-10-23T01:16:11.971Z,0.00
2017-10-23T01:17:11.632Z,0.00
2017-10-23T01:19:05.513Z,0.00
2017-10-23T01:20:05.439Z,0.00
2017-10-23T01:22:00.007Z,0.00
2017-10-23T01:22:59.578Z,0.00
2017-10-23T01:24:52.877Z,0.00
2017-10-23T01:25:52.455Z,0.00
2017-10-23T01:27:45.949Z,0.00
2017-10-23T01:28:45.821Z,0.00
2017-10-23T01:30:38.852Z,0.00
2017-10-23T01:31:38.729Z,0.00
2017-10-23T01:33:31.725Z,0.00
2017-10-23T01:34:31.404Z,0.00
2017-10-23T01:36:24.768Z,0.00
2017-10-23T01:37:24.375Z,0.00
2017-10-23T01:39:18.075Z,0.00
2017-10-23T01:40:17.675Z,0.00
2017-10-23T01:42:12.218Z,0.00
2017-10-23T01:43:12.025Z,0.00
2017-10-23T01:45:05.200Z,0.00
2017-10-23T01:46:05.086Z,0.00
2017-10-23T01:47:58.566Z,0.00
2017-10-23T01:48:57.756Z,0.00
2017-10-23T01:50:50.839Z,0.00
2017-10-23T01:51:50.938Z,0.00
2017-10-23T01:53:45.528Z,0.00
2017-10-23T01:54:45.126Z,0.00
2017-10-23T01:56:38.537Z,0.00
2017-10-23T01:57:38.151Z,0.00
2017-10-23T01:59:31.392Z,0.00
2017-10-23T02:00:31.431Z,0.00
2017-10-23T02:02:24.417Z,0.00
2017-10-23T02:03:24.080Z,0.00
2017-10-23T02:05:17.388Z,0.00
2017-10-23T02:06:17.010Z,0.00
2017-10-23T02:08:11.766Z,0.00
2017-10-23T02:09:11.329Z,0.00
2017-10-23T02:11:04.664Z,0.00
2017-10-23T02:12:04.680Z,0.00
2017-10-23T02:13:57.697Z,0.00
2017-10-23T02:14:57.231Z,0.00
2017-10-23T02:16:50.617Z,0.00
2017-10-23T02:17:50.195Z,0.00
2017-10-23T02:19:43.568Z,0.00
2017-10-23T02:20:43.219Z,0.00
2017-10-23T02:22:36.463Z,0.00
2017-10-23T02:23:36.134Z,0.00
2017-10-23T02:25:29.496Z,0.00
2017-10-23T02:26:29.295Z,0.00
2017-10-23T02:28:23.951Z,0.00
2017-10-23T02:29:23.804Z,0.00
2017-10-23T02:31:16.893Z,0.00
2017-10-23T02:32:16.862Z,0.00
2017-10-23T02:34:09.786Z,0.00
2017-10-23T02:35:09.458Z,0.00
2017-10-23T02:37:02.907Z,0.00
2017-10-23T02:38:02.405Z,0.00
2017-10-23T02:39:55.810Z,0.00
2017-10-23T02:40:55.637Z,0.00
2017-10-23T02:42:50.230Z,0.00
2017-10-23T02:43:50.003Z,0.00
2017-10-23T02:45:43.793Z,0.00
2017-10-23T02:46:43.360Z,0.00
2017-10-23T02:48:38.199Z,0.00
2017-10-23T02:49:37.890Z,0.00
2017-10-23T02:51:31.266Z,0.00
2017-10-23T02:52:31.184Z,0.00
2017-10-23T02:54:24.204Z,0.00
2017-10-23T02:55:23.811Z,0.00
2017-10-23T02:57:17.093Z,0.00
2017-10-23T02:58:16.699Z,0.00
2017-10-23T03:00:10.098Z,0.00
2017-10-23T03:01:09.607Z,0.00
2017-10-23T03:03:02.640Z,0.00
2017-10-23T03:04:02.833Z,0.00
2017-10-23T03:05:57.496Z,0.00
2017-10-23T03:06:57.413Z,0.00
2017-10-23T03:08:50.456Z,0.00
2017-10-23T03:09:49.967Z,0.00
2017-10-23T03:11:43.450Z,0.00
2017-10-23T03:12:43.150Z,0.00
2017-10-23T03:14:36.282Z,0.00
2017-10-23T03:15:36.213Z,0.00
2017-10-23T03:17:30.868Z,0.00
2017-10-23T03:18:30.654Z,0.00
2017-10-23T03:20:23.801Z,0.00
2017-10-23T03:21:23.240Z,0.00
2017-10-23T03:23:16.648Z,0.00
2017-10-23T03:24:16.544Z,0.00
2017-10-23T03:26:09.534Z,0.00
2017-10-23T03:27:09.244Z,0.00
2017-10-23T03:29:02.539Z,0.00
2017-10-23T03:30:02.489Z,0.00
2017-10-23T03:31:57.064Z,0.00
2017-10-23T03:32:56.928Z,0.00
2017-10-23T03:34:50.061Z,0.00
2017-10-23T03:35:49.695Z,0.00
2017-10-23T03:37:42.935Z,0.00
2017-10-23T03:38:42.891Z,0.00
2017-10-23T03:40:35.954Z,0.00
2017-10-23T03:41:35.482Z,0.00
2017-10-23T03:43:28.823Z,0.00
2017-10-23T03:44:28.765Z,0.00
2017-10-23T03:46:21.861Z,0.00
2017-10-23T03:47:21.413Z,0.00
2017-10-23T03:49:14.396Z,0.00
2017-10-23T03:50:15.168Z,0.00
2017-10-23T03:52:09.072Z,0.00
2017-10-23T03:53:08.756Z,0.00
2017-10-23T03:55:03.666Z,0.00
2017-10-23T03:56:03.217Z,0.00
2017-10-23T03:57:56.582Z,0.00
2017-10-23T03:58:56.148Z,0.00
2017-10-23T04:00:49.600Z,0.00
2017-10-23T04:01:49.239Z,0.00
2017-10-23T04:03:42.622Z,0.00
2017-10-23T04:04:42.158Z,0.00
2017-10-23T04:06:36.119Z,0.00
2017-10-23T04:07:35.677Z,0.00
2017-10-23T04:09:30.734Z,0.00
2017-10-23T04:10:30.280Z,0.00
2017-10-23T04:12:23.612Z,0.00
2017-10-23T04:13:23.250Z,0.00
2017-10-23T04:15:16.684Z,0.00
2017-10-23T04:16:16.521Z,0.00
2017-10-23T04:18:09.375Z,0.00
2017-10-23T04:19:09.076Z,0.00
2017-10-23T04:21:02.655Z,0.00
2017-10-23T04:22:02.283Z,0.00
2017-10-23T04:23:02.221Z,0.00
2017-10-23T04:24:02.834Z,0.00
2017-10-23T04:25:02.205Z,0.00
2017-10-23T04:26:02.450Z,0.00
2017-10-23T04:27:02.044Z,0.00
2017-10-23T04:28:02.011Z,0.00
2017-10-23T04:29:01.956Z,0.00
2017-10-23T04:30:01.910Z,0.00
2017-10-23T04:31:01.865Z,0.00
2017-10-23T04:32:01.823Z,0.00
2017-10-23T04:33:01.775Z,0.00
2017-10-23T04:34:01.737Z,0.00
2017-10-23T04:35:01.701Z,0.00
2017-10-23T04:36:01.657Z,0.00
2017-10-23T04:37:01.645Z,0.00
2017-10-23T04:38:01.614Z,0.00
2017-10-23T04:39:01.523Z,0.00
2017-10-23T04:40:01.493Z,0.00
2017-10-23T04:41:01.453Z,0.00
2017-10-23T04:42:01.413Z,0.00
2017-10-23T04:43:01.358Z,0.00
2017-10-23T04:44:01.335Z,0.00
2017-10-23T04:45:01.282Z,0.00
2017-10-23T04:46:01.235Z,0.00
2017-10-23T04:47:01.196Z,0.00
2017-10-23T04:48:01.162Z,0.00
2017-10-23T04:49:01.133Z,0.00
2017-10-23T04:50:01.081Z,0.00
2017-10-23T04:51:01.066Z,0.00
2017-10-23T04:52:00.992Z,0.00
2017-10-23T04:53:00.972Z,0.00
2017-10-23T04:54:00.908Z,0.00
2017-10-23T04:55:00.879Z,0.00
2017-10-23T04:56:00.840Z,0.00
2017-10-23T04:57:00.804Z,0.00
2017-10-23T04:58:00.746Z,0.00
2017-10-23T04:59:00.725Z,0.00
2017-10-23T05:00:00.653Z,0.00
2017-10-23T05:01:00.648Z,0.00
2017-10-23T05:02:00.583Z,0.00
2017-10-23T05:03:00.543Z,0.00
2017-10-23T05:04:00.527Z,0.00
2017-10-23T05:05:00.458Z,0.00
2017-10-23T05:06:00.432Z,0.00
2017-10-23T05:07:00.398Z,0.00
2017-10-23T05:08:00.341Z,0.00
2017-10-23T05:09:00.311Z,0.00
2017-10-23T05:10:00.251Z,0.00
2017-10-23T05:11:00.236Z,0.00
2017-10-23T05:12:00.219Z,0.00
2017-10-23T05:13:00.163Z,0.00
2017-10-23T05:14:00.102Z,0.00
2017-10-23T05:15:00.047Z,0.00
2017-10-23T05:16:00.022Z,0.00
2017-10-23T05:17:00.027Z,0.00
2017-10-23T05:17:59.953Z,0.00
2017-10-23T05:18:59.870Z,0.00
2017-10-23T05:19:59.863Z,0.00
2017-10-23T05:20:59.815Z,0.00
2017-10-23T05:21:59.766Z,0.00
2017-10-23T05:22:59.711Z,0.00
2017-10-23T05:23:59.683Z,0.00
2017-10-23T05:24:59.718Z,0.00
2017-10-23T05:25:59.582Z,0.00
2017-10-23T05:26:59.600Z,0.00
2017-10-23T05:27:59.525Z,0.00
2017-10-23T05:28:59.472Z,0.00
2017-10-23T05:29:59.443Z,0.00
2017-10-23T05:30:59.423Z,0.00
2017-10-23T05:31:59.337Z,0.00
2017-10-23T05:32:59.296Z,0.00
2017-10-23T05:33:59.251Z,0.00
2017-10-23T05:34:59.232Z,0.00
2017-10-23T05:35:59.229Z,0.00
2017-10-23T05:36:59.130Z,0.00
2017-10-23T05:37:59.134Z,0.00
2017-10-23T05:38:59.043Z,0.00
2017-10-23T05:39:59.032Z,0.00
2017-10-23T05:40:59.053Z,0.00
2017-10-23T05:41:58.924Z,5.63
2017-10-23T05:42:58.908Z,5.63
2017-10-23T05:43:58.830Z,5.63
2017-10-23T05:44:58.799Z,5.63
2017-10-23T05:45:58.849Z,5.63
2017-10-23T05:46:58.706Z,5.63
2017-10-23T05:47:58.673Z,5.63
2017-10-23T05:48:58.628Z,11.25
2017-10-23T05:49:58.603Z,11.25
2017-10-23T05:50:58.543Z,11.25
2017-10-23T05:51:58.500Z,16.88
2017-10-23T05:52:58.464Z,16.88
2017-10-23T05:53:58.474Z,22.50
2017-10-23T05:54:58.403Z,28.13
2017-10-23T05:55:58.356Z,28.13
2017-10-23T05:56:58.294Z,33.75
2017-10-23T05:57:58.262Z,33.75
2017-10-23T05:58:58.230Z,33.75
2017-10-23T05:59:58.179Z,33.75
2017-10-23T06:00:58.149Z,39.38
2017-10-23T06:01:58.096Z,45.00
2017-10-23T06:02:58.050Z,50.63
2017-10-23T06:03:58.020Z,56.25
2017-10-23T06:04:57.973Z,61.88
2017-10-23T06:05:57.936Z,61.88
2017-10-23T06:06:57.888Z,61.88
2017-10-23T06:07:57.843Z,61.88
2017-10-23T06:08:57.811Z,61.88
2017-10-23T06:09:57.757Z,61.88
2017-10-23T06:10:57.782Z,61.88
2017-10-23T06:11:57.732Z,61.88
2017-10-23T06:12:57.653Z,67.50
2017-10-23T06:13:57.604Z,67.50
2017-10-23T06:14:57.560Z,73.13
2017-10-23T06:15:57.516Z,73.13
2017-10-23T06:16:57.468Z,78.75
2017-10-23T06:17:57.484Z,84.38
2017-10-23T06:18:57.390Z,90.00
2017-10-23T06:19:57.349Z,95.63
2017-10-23T06:20:57.310Z,106.88
2017-10-23T06:21:57.276Z,112.50
2017-10-23T06:22:57.258Z,112.50
2017-10-23T06:23:57.183Z,112.50
2017-10-23T06:24:57.142Z,118.13
2017-10-23T06:25:57.097Z,123.75
2017-10-23T06:26:57.056Z,129.38
2017-10-23T06:27:57.020Z,129.38
2017-10-23T06:28:57.057Z,135.00
2017-10-23T06:29:56.960Z,135.00
2017-10-23T06:30:56.915Z,135.00
2017-10-23T06:31:56.874Z,129.38
2017-10-23T06:32:56.856Z,118.13
2017-10-23T06:33:56.777Z,106.88
2017-10-23T06:34:56.734Z,106.88
2017-10-23T06:35:56.724Z,112.50
2017-10-23T06:36:56.644Z,123.75
2017-10-23T06:37:56.604Z,129.38
2017-10-23T06:38:56.568Z,129.38
2017-10-23T06:39:56.516Z,123.75
2017-10-23T06:40:56.485Z,118.13
2017-10-23T06:41:56.444Z,118.13
2017-10-23T06:42:56.520Z,118.13
2017-10-23T06:43:56.379Z,129.38
2017-10-23T06:44:56.338Z,146.25
2017-10-23T06:45:56.294Z,151.88
2017-10-23T06:46:56.230Z,146.25
2017-10-23T06:47:56.224Z,146.25
2017-10-23T06:48:56.180Z,151.88
2017-10-23T06:49:56.116Z,157.50
2017-10-23T06:50:56.063Z,146.25
2017-10-23T06:51:56.028Z,135.00
2017-10-23T06:52:55.996Z,129.38
2017-10-23T06:53:55.956Z,129.38
2017-10-23T06:54:55.917Z,135.00
2017-10-23T06:55:55.868Z,140.63
2017-10-23T06:56:55.881Z,151.88
2017-10-23T06:57:55.827Z,151.88
2017-10-23T06:58:55.737Z,146.25
2017-10-23T06:59:55.700Z,151.88
2017-10-23T07:00:55.662Z,157.50
2017-10-23T07:01:55.609Z,168.75
2017-10-23T07:02:55.596Z,185.63
2017-10-23T07:03:55.556Z,202.50
2017-10-23T07:04:55.501Z,213.75
2017-10-23T07:05:55.455Z,230.63
2017-10-23T07:06:55.410Z,241.88
2017-10-23T07:07:55.376Z,253.13
2017-10-23T07:08:55.342Z,264.38
2017-10-23T07:09:55.283Z,253.13
2017-10-23T07:10:55.244Z,253.13
2017-10-23T07:11:55.208Z,264.38
2017-10-23T07:12:55.231Z,275.63
2017-10-23T07:13:55.134Z,315.00
2017-10-23T07:14:55.107Z,365.63
2017-10-23T07:15:55.054Z,388.13
2017-10-23T07:16:55.036Z,393.75
2017-10-23T07:17:54.968Z,382.50
2017-10-23T07:18:54.924Z,354.38
2017-10-23T07:19:54.892Z,326.25
2017-10-23T07:20:54.849Z,309.38
2017-10-23T07:21:54.811Z,286.88
2017-10-23T07:22:54.796Z,270.00
2017-10-23T07:23:54.721Z,270.00
2017-10-23T07:24:54.667Z,281.25
2017-10-23T07:25:54.645Z,292.50
2017-10-23T07:26:54.617Z,303.75
2017-10-23T07:27:54.571Z,331.88
2017-10-23T07:28:54.550Z,354.38
2017-10-23T07:29:54.466Z,371.25
2017-10-23T07:30:54.440Z,365.63
2017-10-23T07:31:54.398Z,348.75
2017-10-23T07:32:54.396Z,337.50
2017-10-23T07:33:54.311Z,320.63
2017-10-23T07:34:54.270Z,303.75
2017-10-23T07:35:54.223Z,281.25
2017-10-23T07:36:54.241Z,264.38
2017-10-23T07:37:54.141Z,253.13
2017-10-23T07:38:54.109Z,247.50
2017-10-23T07:39:54.072Z,247.50
2017-10-23T07:40:54.026Z,247.50
2017-10-23T07:41:53.995Z,236.25
2017-10-23T07:42:53.939Z,236.25
2017-10-23T07:43:53.910Z,236.25
2017-10-23T07:44:53.864Z,236.25
2017-10-23T07:45:53.827Z,253.13
2017-10-23T07:46:53.785Z,275.63
2017-10-23T07:47:53.749Z,315.00
2017-10-23T07:48:53.708Z,382.50
2017-10-23T07:49:53.664Z,444.38
2017-10-23T07:50:53.620Z,489.38
2017-10-23T07:51:53.596Z,523.13
2017-10-23T07:52:53.551Z,511.88
2017-10-23T07:53:53.536Z,478.13
2017-10-23T07:54:53.452Z,438.75
2017-10-23T07:55:53.426Z,399.38
2017-10-23T07:56:53.362Z,360.00
2017-10-23T07:57:53.372Z,348.75
2017-10-23T07:58:53.292Z,337.50
2017-10-23T07:59:53.245Z,303.75
2017-10-23T08:00:53.230Z,281.25
2017-10-23T08:01:53.170Z,264.38
2017-10-23T08:02:53.142Z,253.13
2017-10-23T08:03:53.121Z,241.88
2017-10-23T08:04:53.060Z,241.88
2017-10-23T08:05:53.017Z,241.88
2017-10-23T08:06:52.993Z,253.13
2017-10-23T08:07:52.918Z,264.38
2017-10-23T08:08:52.886Z,275.63
2017-10-23T08:09:52.840Z,292.50
2017-10-23T08:10:52.805Z,292.50
2017-10-23T08:11:52.788Z,292.50
2017-10-23T08:12:52.714Z,286.88
2017-10-23T08:13:52.697Z,281.25
2017-10-23T08:14:52.649Z,286.88
2017-10-23T08:15:52.594Z,298.13
2017-10-23T08:16:52.555Z,303.75
2017-10-23T08:17:52.531Z,309.38
2017-10-23T08:18:52.485Z,326.25
2017-10-23T08:19:52.468Z,348.75
2017-10-23T08:20:52.438Z,388.13
2017-10-23T08:21:52.353Z,438.75
2017-10-23T08:22:52.310Z,455.63
2017-10-23T08:23:52.272Z,478.13
2017-10-23T08:24:52.224Z,506.25
2017-10-23T08:25:52.242Z,540.00
2017-10-23T08:26:52.152Z,556.88
2017-10-23T08:27:52.112Z,573.75
2017-10-23T08:28:52.079Z,607.50
2017-10-23T08:29:52.054Z,607.50
2017-10-23T08:30:51.997Z,596.25
2017-10-23T08:31:51.947Z,596.25
2017-10-23T08:32:51.911Z,641.25
2017-10-23T08:33:51.875Z,686.25
2017-10-23T08:34:51.824Z,714.38
2017-10-23T08:35:51.791Z,736.88
2017-10-23T08:36:51.733Z,765.00
2017-10-23T08:37:51.697Z,781.88
2017-10-23T08:38:51.660Z,798.75
2017-10-23T08:39:51.616Z,821.25
2017-10-23T08:40:51.590Z,838.13
2017-10-23T08:41:51.533Z,843.75
2017-10-23T08:42:51.510Z,860.63
2017-10-23T08:43:51.485Z,843.75
2017-10-23T08:44:51.431Z,821.25
2017-10-23T08:45:51.408Z,810.00
2017-10-23T08:46:51.329Z,810.00
2017-10-23T08:47:51.297Z,810.00
2017-10-23T08:48:51.256Z,793.13
2017-10-23T08:49:51.214Z,759.38
2017-10-23T08:50:51.174Z,720.00
2017-10-23T08:51:51.139Z,703.13
2017-10-23T08:52:51.096Z,703.13
2017-10-23T08:53:51.043Z,686.25
2017-10-23T08:54:51.030Z,675.00
2017-10-23T08:55:50.967Z,697.50
2017-10-23T08:56:50.943Z,697.50
2017-10-23T08:57:50.891Z,691.88
2017-10-23T08:58:50.850Z,675.00
2017-10-23T08:59:50.806Z,646.88
2017-10-23T09:00:50.775Z,601.88
2017-10-23T09:01:50.732Z,579.38
2017-10-23T09:02:50.699Z,585.00
2017-10-23T09:03:50.646Z,573.75
2017-10-23T09:04:50.616Z,573.75
2017-10-23T09:05:50.581Z,562.50
2017-10-23T09:06:50.527Z,556.88
2017-10-23T09:07:50.514Z,551.25
2017-10-23T09:08:50.484Z,568.13
2017-10-23T09:09:50.434Z,585.00
2017-10-23T09:10:50.382Z,618.75
2017-10-23T09:11:50.349Z,652.50
2017-10-23T09:12:50.296Z,635.63
2017-10-23T09:13:50.257Z,601.88
2017-10-23T09:14:50.222Z,590.63
2017-10-23T09:15:50.174Z,568.13
2017-10-23T09:16:50.142Z,551.25
2017-10-23T09:17:50.119Z,545.63
2017-10-23T09:18:50.187Z,540.00
2017-10-23T09:19:50.022Z,551.25
2017-10-23T09:20:49.969Z,556.88
2017-10-23T09:21:49.946Z,551.25
2017-10-23T09:22:49.909Z,545.63
2017-10-23T09:23:49.855Z,545.63
2017-10-23T09:24:49.854Z,551.25
2017-10-23T09:25:49.783Z,534.38
2017-10-23T09:26:49.730Z,523.13
2017-10-23T09:27:49.705Z,506.25
2017-10-23T09:28:49.693Z,500.63
2017-10-23T09:29:49.623Z,506.25
2017-10-23T09:30:49.589Z,540.00
2017-10-23T09:31:49.541Z,562.50
2017-10-23T09:32:49.497Z,534.38
2017-10-23T09:33:49.464Z,495.00
2017-10-23T09:34:49.473Z,472.50
2017-10-23T09:35:49.378Z,472.50
2017-10-23T09:36:49.354Z,478.13
2017-10-23T09:37:49.294Z,461.25
2017-10-23T09:38:49.267Z,461.25
2017-10-23T09:39:49.222Z,483.75
2017-10-23T09:40:49.205Z,511.88
2017-10-23T09:41:49.137Z,534.38
2017-10-23T09:42:49.094Z,511.88
2017-10-23T09:43:49.078Z,506.25
2017-10-23T09:44:49.040Z,478.13
2017-10-23T09:45:49.030Z,433.13
2017-10-23T09:46:48.952Z,416.25
2017-10-23T09:47:48.903Z,410.63
2017-10-23T09:48:48.875Z,433.13
2017-10-23T09:49:48.828Z,421.88
2017-10-23T09:50:48.782Z,410.63
2017-10-23T09:51:48.746Z,421.88
2017-10-23T09:52:48.698Z,427.50
2017-10-23T09:53:48.668Z,405.00
2017-10-23T09:54:48.663Z,388.13
2017-10-23T09:55:48.622Z,410.63
2017-10-23T09:56:48.545Z,405.00
2017-10-23T09:57:48.511Z,421.88
2017-10-23T09:58:48.530Z,444.38
2017-10-23T09:59:48.433Z,472.50
2017-10-23T10:00:48.459Z,483.75
2017-10-23T10:01:48.344Z,461.25
2017-10-23T10:02:48.315Z,472.50
2017-10-23T10:03:48.281Z,528.75
2017-10-23T10:04:48.221Z,573.75
2017-10-23T10:05:48.188Z,618.75
2017-10-23T10:06:48.153Z,680.63
2017-10-23T10:07:48.103Z,736.88
2017-10-23T10:08:48.122Z,731.25
2017-10-23T10:09:48.025Z,736.88
2017-10-23T10:10:47.991Z,753.75
2017-10-23T10:11:47.957Z,798.75
2017-10-23T10:12:47.914Z,888.75
2017-10-23T10:13:47.869Z,933.75
2017-10-23T10:14:47.849Z,905.63
2017-10-23T10:15:47.809Z,911.25
2017-10-23T10:16:47.771Z,1001.25
2017-10-23T10:17:47.719Z,1012.50
2017-10-23T10:18:47.690Z,1006.88
2017-10-23T10:19:47.686Z,1085.63
2017-10-23T10:20:47.626Z,1153.13
2017-10-23T10:21:47.574Z,1130.63
2017-10-23T10:22:47.527Z,1046.25
2017-10-23T10:23:47.495Z,922.50
2017-10-23T10:24:47.439Z,781.88
2017-10-23T10:25:47.401Z,703.13
2017-10-23T10:26:47.404Z,697.50
2017-10-23T10:27:47.322Z,725.63
2017-10-23T10:28:47.322Z,697.50
2017-10-23T10:29:47.251Z,652.50
2017-10-23T10:30:47.197Z,601.88
2017-10-23T10:31:47.175Z,607.50
2017-10-23T10:32:47.145Z,618.75
2017-10-23T10:33:47.097Z,646.88
2017-10-23T10:34:47.048Z,736.88
2017-10-23T10:35:47.002Z,781.88
2017-10-23T10:36:46.996Z,770.63
2017-10-23T10:37:46.941Z,787.50
2017-10-23T10:38:46.896Z,866.25
2017-10-23T10:39:46.867Z,978.75
2017-10-23T10:40:46.806Z,1018.13
2017-10-23T10:41:46.775Z,1074.38
2017-10-23T10:42:46.731Z,1130.63
2017-10-23T10:43:46.697Z,1119.38
2017-10-23T10:44:46.667Z,1046.25
2017-10-23T10:45:46.625Z,995.63
2017-10-23T10:46:46.581Z,883.13
2017-10-23T10:47:46.558Z,815.63
2017-10-23T10:48:46.493Z,860.63
2017-10-23T10:49:46.471Z,950.63
2017-10-23T10:50:46.420Z,1001.25
2017-10-23T10:51:46.400Z,1096.88
2017-10-23T10:52:46.351Z,1147.50
2017-10-23T10:53:46.312Z,1260.00
2017-10-23T10:54:46.272Z,1417.50
2017-10-23T10:55:46.248Z,1395.00
2017-10-23T10:56:46.226Z,1428.75
2017-10-23T10:57:46.175Z,1631.25
2017-10-23T10:58:46.132Z,1726.88
2017-10-23T10:59:46.082Z,1766.25
2017-10-23T11:00:46.042Z,1805.63
2017-10-23T11:01:46.016Z,1895.63
2017-10-23T11:02:45.990Z,1918.13
2017-10-23T11:03:45.929Z,1996.88
2017-10-23T11:04:45.923Z,1974.38
2017-10-23T11:05:45.854Z,1940.63
2017-10-23T11:06:45.832Z,1951.88
2017-10-23T11:07:45.799Z,1974.38
2017-10-23T11:08:45.746Z,1918.13
2017-10-23T11:09:45.737Z,2120.63
2017-10-23T11:10:45.697Z,2092.50
2017-10-23T11:11:45.637Z,1861.88
2017-10-23T11:12:45.608Z,1642.50
2017-10-23T11:13:45.581Z,1366.88
2017-10-23T11:14:45.529Z,1288.13
2017-10-23T11:15:45.486Z,1198.13
2017-10-23T11:16:45.468Z,1153.13
2017-10-23T11:17:45.421Z,1119.38
2017-10-23T11:18:45.396Z,1040.63
2017-10-23T11:19:45.343Z,1029.38
2017-10-23T11:20:45.308Z,978.75
2017-10-23T11:21:45.274Z,916.88
2017-10-23T11:22:45.240Z,911.25
2017-10-23T11:23:45.197Z,922.50
2017-10-23T11:24:45.162Z,871.88
2017-10-23T11:25:45.153Z,838.13
2017-10-23T11:26:45.096Z,860.63
2017-10-23T11:27:45.065Z,787.50
2017-10-23T11:28:45.017Z,804.38
2017-10-23T11:29:44.990Z,736.88
2017-10-23T11:30:44.949Z,703.13
2017-10-23T11:31:44.929Z,731.25
2017-10-23T11:32:44.874Z,691.88
2017-10-23T11:33:44.837Z,663.75
2017-10-23T11:34:44.823Z,697.50
2017-10-23T11:35:44.759Z,742.50
2017-10-23T11:36:44.716Z,871.88
2017-10-23T11:37:44.700Z,984.38
2017-10-23T11:38:44.670Z,1035.00
2017-10-23T11:39:44.607Z,1119.38
2017-10-23T11:40:44.594Z,1164.38
2017-10-23T11:41:44.533Z,1141.88
2017-10-23T11:42:44.497Z,1080.00
2017-10-23T11:43:44.479Z,1035.00
2017-10-23T11:44:44.430Z,1068.75
2017-10-23T11:45:44.380Z,1096.88
2017-10-23T11:46:44.361Z,1080.00
2017-10-23T11:47:44.304Z,1108.13
2017-10-23T11:48:44.273Z,1119.38
2017-10-23T11:49:44.228Z,1080.00
2017-10-23T11:50:44.209Z,1051.88
2017-10-23T11:51:44.166Z,1085.63
2017-10-23T11:52:44.134Z,1130.63
2017-10-23T11:53:44.095Z,1147.50
2017-10-23T11:54:44.043Z,1130.63
2017-10-23T11:55:44.006Z,1074.38
2017-10-23T11:56:43.976Z,1018.13
2017-10-23T11:57:43.922Z,933.75
2017-10-23T11:58:43.896Z,843.75
2017-10-23T11:59:43.861Z,798.75
2017-10-23T12:00:43.823Z,781.88
2017-10-23T12:01:43.793Z,725.63
2017-10-23T12:02:43.743Z,787.50
2017-10-23T12:03:43.715Z,911.25
2017-10-23T12:04:43.665Z,1074.38
2017-10-23T12:05:43.641Z,1293.75
2017-10-23T12:06:43.589Z,1507.50
2017-10-23T12:07:43.552Z,1996.88
2017-10-23T12:08:43.544Z,1569.38
2017-10-23T12:09:43.479Z,1524.38
2017-10-23T12:10:43.449Z,1400.63
2017-10-23T12:11:43.406Z,1305.00
2017-10-23T12:12:43.373Z,1248.75
2017-10-23T12:13:43.330Z,1203.75
2017-10-23T12:14:43.288Z,1147.50
2017-10-23T12:15:43.269Z,1096.88
2017-10-23T12:16:43.213Z,1119.38
2017-10-23T12:17:43.192Z,1164.38
2017-10-23T12:18:43.140Z,1305.00
2017-10-23T12:19:43.103Z,1417.50
2017-10-23T12:20:43.185Z,1468.13
2017-10-23T12:21:43.037Z,1541.25
2017-10-23T12:22:43.007Z,1614.38
2017-10-23T12:23:42.977Z,1625.63
2017-10-23T12:24:42.928Z,1485.00
2017-10-23T12:25:42.894Z,1260.00
2017-10-23T12:26:42.854Z,1096.88
2017-10-23T12:27:42.832Z,1006.88
2017-10-23T12:28:42.784Z,1001.25
2017-10-23T12:29:42.750Z,1091.25
2017-10-23T12:30:42.709Z,1209.38
2017-10-23T12:31:42.688Z,1299.38
2017-10-23T12:32:42.639Z,1361.25
2017-10-23T12:33:42.601Z,1378.13
2017-10-23T12:34:42.565Z,1310.63
2017-10-23T12:35:42.527Z,1203.75
2017-10-23T12:36:42.496Z,1147.50
2017-10-23T12:37:42.457Z,1181.25
2017-10-23T12:38:42.403Z,1231.88
2017-10-23T12:39:42.378Z,1209.38
2017-10-23T12:40:42.359Z,1181.25
2017-10-23T12:41:42.340Z,1153.13
2017-10-23T12:42:42.270Z,1035.00
2017-10-23T12:43:42.229Z,933.75
2017-10-23T12:44:42.191Z,922.50
2017-10-23T12:45:42.175Z,945.00
2017-10-23T12:46:42.107Z,922.50
2017-10-23T12:47:42.087Z,838.13
2017-10-23T12:48:42.038Z,770.63
2017-10-23T12:49:42.005Z,776.25
2017-10-23T12:50:41.968Z,798.75
2017-10-23T12:51:41.943Z,787.50
2017-10-23T12:52:41.897Z,804.38
2017-10-23T12:53:41.853Z,815.63
2017-10-23T12:54:41.819Z,883.13
2017-10-23T12:55:41.807Z,956.25
2017-10-23T12:56:41.763Z,967.50
2017-10-23T12:57:41.732Z,928.13
2017-10-23T12:58:41.685Z,894.38
2017-10-23T12:59:41.647Z,860.63
2017-10-23T13:00:41.601Z,821.25
2017-10-23T13:01:41.569Z,770.63
2017-10-23T13:02:41.540Z,765.00
2017-10-23T13:03:41.486Z,798.75
2017-10-23T13:04:41.494Z,815.63
2017-10-23T13:05:41.416Z,815.63
2017-10-23T13:06:41.385Z,815.63
2017-10-23T13:07:41.351Z,815.63
2017-10-23T13:08:41.307Z,793.13
2017-10-23T13:09:41.272Z,770.63
2017-10-23T13:10:41.236Z,759.38
2017-10-23T13:11:41.204Z,770.63
2017-10-23T13:12:41.161Z,765.00
2017-10-23T13:13:41.116Z,759.38
2017-10-23T13:14:41.089Z,748.13
2017-10-23T13:15:41.059Z,736.88
2017-10-23T13:16:41.043Z,748.13
2017-10-23T13:17:40.986Z,753.75
2017-10-23T13:18:40.943Z,720.00
2017-10-23T13:19:40.922Z,714.38
2017-10-23T13:20:40.855Z,714.38
2017-10-23T13:21:40.816Z,703.13
2017-10-23T13:22:40.774Z,686.25
2017-10-23T13:23:40.731Z,663.75
2017-10-23T13:24:40.713Z,658.13
2017-10-23T13:25:40.668Z,663.75
2017-10-23T13:26:40.634Z,680.63
2017-10-23T13:27:40.575Z,691.88
2017-10-23T13:28:40.553Z,686.25
2017-10-23T13:29:40.509Z,663.75
2017-10-23T13:30:40.488Z,630.00
2017-10-23T13:31:40.445Z,601.88
2017-10-23T13:32:40.401Z,585.00
2017-10-23T13:33:40.388Z,568.13
2017-10-23T13:34:40.342Z,556.88
2017-10-23T13:35:40.278Z,545.63
2017-10-23T13:36:40.275Z,517.50
2017-10-23T13:37:40.211Z,472.50
2017-10-23T13:38:40.184Z,466.88
2017-10-23T13:39:40.148Z,455.63
2017-10-23T13:40:40.127Z,438.75
2017-10-23T13:41:40.074Z,421.88
2017-10-23T13:42:40.029Z,371.25
2017-10-23T13:43:39.996Z,309.38
2017-10-23T13:44:39.966Z,275.63
2017-10-23T13:45:39.926Z,241.88
2017-10-23T13:46:39.869Z,208.13
2017-10-23T13:47:39.848Z,180.00
2017-10-23T13:48:39.822Z,168.75
2017-10-23T13:49:39.755Z,163.13
2017-10-23T13:50:39.722Z,163.13
2017-10-23T13:51:39.722Z,151.88
2017-10-23T13:52:39.661Z,135.00
2017-10-23T13:53:39.622Z,135.00
2017-10-23T13:54:39.572Z,157.50
2017-10-23T13:55:39.530Z,202.50
2017-10-23T13:56:39.510Z,247.50
2017-10-23T13:57:39.489Z,270.00
2017-10-23T13:58:39.448Z,281.25
2017-10-23T13:59:39.446Z,303.75
2017-10-23T14:00:39.423Z,371.25
2017-10-23T14:01:39.303Z,489.38
2017-10-23T14:02:39.267Z,652.50
2017-10-23T14:03:39.241Z,759.38
2017-10-23T14:04:39.245Z,939.38